Station Historical Data
Daily Summary for April 12, 2017 Units:  Both    English   Metric
« Previous Day
Next Day »
Daily Weekly Monthly Yearly Custom
  High: Low: Average:
Temperature: 81.6 °F /  27.6 °C 60.8 °F /  16 °C 69.1 °F /  20.6 °C
Dew Point: 59.1 °F /  15.1 °C 50.1 °F /  10.1 °C 54.7 °F /  12.6 °C
Humidity: 84% 35% 62%
Wind Speed: 1.0mph /  1.6km/h - 0.1mph /  0.2km/h
Wind Gust: 5.0mph /  8km/h - -
Wind- - SE
Pressure: 30.27 in /  1024.9 hPa 30.18 in /  1021.9 hPa -
Precipitation: 0.00 in /  0 mm    
Historical Graphs
 
 
Tabular Data for April 12, 2017
Time Temperature Dew Point Pressure Wind Wind Speed Wind Gust Humidity Rainfall Rate (Hourly) Conditions
00:00 64.7 °F /  18.2 °C 51.4 °F /  10.8 °C 30.22in /  1023.2hPa Calm     62% 0.00in /  0mm CLR
00:15 64.1 °F /  17.8 °C 51.3 °F /  10.7 °C 30.22in /  1023.2hPa Calm     63% 0.00in /  0mm CLR
00:30 63.9 °F /  17.7 °C 51.5 °F /  10.8 °C 30.22in /  1023.2hPa Calm     64% 0.00in /  0mm CLR
00:45 63.4 °F /  17.4 °C 51.8 °F /  11 °C 30.22in /  1023.2hPa Calm     66% 0.00in /  0mm CLR
01:00 62.6 °F /  17 °C 52.3 °F /  11.3 °C 30.22in /  1023.2hPa Calm     69% 0.00in /  0mm CLR
01:15 62.4 °F /  16.9 °C 52.5 °F /  11.4 °C 30.22in /  1023.2hPa Calm     70% 0.00in /  0mm CLR
01:30 62.2 °F /  16.8 °C 52.6 °F /  11.4 °C 30.21in /  1022.9hPa Calm     71% 0.00in /  0mm CLR
01:45 62.0 °F /  16.7 °C 52.5 °F /  11.4 °C 30.21in /  1022.9hPa Calm     71% 0.00in /  0mm CLR
02:00 61.8 °F /  16.6 °C 52.3 °F /  11.3 °C 30.20in /  1022.6hPa Calm     71% 0.00in /  0mm CLR
02:15 62.1 °F /  16.7 °C 52.2 °F /  11.2 °C 30.20in /  1022.6hPa Calm     70% 0.00in /  0mm CLR
02:30 61.5 °F /  16.4 °C 53.2 °F /  11.8 °C 30.20in /  1022.6hPa Calm     74% 0.00in /  0mm CLR
02:45 60.8 °F /  16 °C 53.2 °F /  11.8 °C 30.20in /  1022.6hPa Calm     76% 0.00in /  0mm CLR
03:00 61.3 °F /  16.3 °C 53.7 °F /  12.1 °C 30.20in /  1022.6hPa Calm   1.0mph /  1.6km/h 76% 0.00in /  0mm CLR
03:15 61.9 °F /  16.6 °C 54.2 °F /  12.3 °C 30.19in /  1022.2hPa Calm   1.0mph /  1.6km/h 76% 0.00in /  0mm CLR
04:00 63.2 °F /  17.3 °C 54.8 °F /  12.7 °C 30.19in /  1022.2hPa Calm     74% 0.00in /  0mm CLR
04:15 63.8 °F /  17.7 °C 55.4 °F /  13 °C 30.19in /  1022.2hPa Calm   1.0mph /  1.6km/h 74% 0.00in /  0mm CLR
04:30 63.8 °F /  17.7 °C 55.4 °F /  13 °C 30.18in /  1021.9hPa Calm     74% 0.00in /  0mm CLR
04:45 63.8 °F /  17.7 °C 55.4 °F /  13 °C 30.18in /  1021.9hPa Calm     74% 0.00in /  0mm CLR
05:00 63.8 °F /  17.7 °C 55.4 °F /  13 °C 30.18in /  1021.9hPa Calm     74% 0.00in /  0mm CLR
05:15 63.8 °F /  17.7 °C 55.4 °F /  13 °C 30.18in /  1021.9hPa Calm     74% 0.00in /  0mm CLR
05:30 63.8 °F /  17.7 °C 55.4 °F /  13 °C 30.19in /  1022.2hPa Calm     74% 0.00in /  0mm CLR
05:45 63.8 °F /  17.7 °C 55.4 °F /  13 °C 30.19in /  1022.2hPa Calm     74% 0.00in /  0mm CLR
06:00 63.8 °F /  17.7 °C 55.4 °F /  13 °C 30.19in /  1022.2hPa Calm     74% 0.00in /  0mm CLR
06:15 63.8 °F /  17.7 °C 55.4 °F /  13 °C 30.19in /  1022.2hPa Calm     74% 0.00in /  0mm CLR
06:30 63.8 °F /  17.7 °C 55.4 °F /  13 °C 30.19in /  1022.2hPa Calm     74% 0.00in /  0mm CLR
06:45 63.8 °F /  17.7 °C 55.4 °F /  13 °C 30.20in /  1022.6hPa Calm     74% 0.00in /  0mm CLR
07:00 63.8 °F /  17.7 °C 55.4 °F /  13 °C 30.20in /  1022.6hPa Calm     74% 0.00in /  0mm CLR
07:15 63.8 °F /  17.7 °C 55.4 °F /  13 °C 30.21in /  1022.9hPa Calm     74% 0.00in /  0mm CLR
07:30 63.8 °F /  17.7 °C 55.4 °F /  13 °C 30.22in /  1023.2hPa Calm     74% 0.00in /  0mm CLR
07:45 63.8 °F /  17.7 °C 55.4 °F /  13 °C 30.22in /  1023.2hPa Calm     74% 0.00in /  0mm CLR
08:00 63.8 °F /  17.7 °C 55.4 °F /  13 °C 30.23in /  1023.6hPa Calm     74% 0.00in /  0mm CLR
08:15 63.8 °F /  17.7 °C 55.4 °F /  13 °C 30.23in /  1023.6hPa Calm     74% 0.00in /  0mm CLR
08:30 63.8 °F /  17.7 °C 55.4 °F /  13 °C 30.24in /  1023.9hPa Calm     74% 0.00in /  0mm CLR
08:45 61.6 °F /  16.4 °C 56.7 °F /  13.7 °C 30.24in /  1023.9hPa Calm     84% 0.00in /  0mm CLR
09:00 63.0 °F /  17.2 °C 58.1 °F /  14.5 °C 30.24in /  1023.9hPa Calm     84% 0.00in /  0mm CLR
09:15 64.2 °F /  17.9 °C 57.9 °F /  14.4 °C 30.24in /  1023.9hPa Calm     80% 0.00in /  0mm CLR
09:30 65.1 °F /  18.4 °C 57.7 °F /  14.3 °C 30.25in /  1024.3hPa Calm   2.0mph /  3.2km/h 77% 0.00in /  0mm CLR
09:45 65.2 °F /  18.4 °C 58.2 °F /  14.6 °C 30.26in /  1024.6hPa Calm   1.0mph /  1.6km/h 78% 0.00in /  0mm CLR
10:00 66.2 °F /  19 °C 58.4 °F /  14.7 °C 30.26in /  1024.6hPa Calm   1.0mph /  1.6km/h 76% 0.00in /  0mm CLR
10:15 67.6 °F /  19.8 °C 58.2 °F /  14.6 °C 30.26in /  1024.6hPa Calm   5.0mph /  8km/h 72% 0.00in /  0mm CLR
10:30 69.7 °F /  20.9 °C 59.1 °F /  15.1 °C 30.26in /  1024.6hPa Calm   2.0mph /  3.2km/h 69% 0.00in /  0mm CLR
10:45 70.9 °F /  21.6 °C 57.7 °F /  14.3 °C 30.26in /  1024.6hPa Calm   1.0mph /  1.6km/h 63% 0.00in /  0mm CLR
11:00 71.1 °F /  21.7 °C 58.3 °F /  14.6 °C 30.27in /  1024.9hPa Calm   2.0mph /  3.2km/h 64% 0.00in /  0mm CLR
11:15 71.4 °F /  21.9 °C 59.0 °F /  15 °C 30.27in /  1024.9hPa Calm   2.0mph /  3.2km/h 65% 0.00in /  0mm CLR
11:30 73.0 °F /  22.8 °C 58.3 °F /  14.6 °C 30.27in /  1024.9hPa WSW 1.0mph /  1.6km/h 2.0mph /  3.2km/h 60% 0.00in /  0mm CLR
11:45 73.6 °F /  23.1 °C 58.8 °F /  14.9 °C 30.27in /  1024.9hPa Calm   3.0mph /  4.8km/h 60% 0.00in /  0mm CLR
12:00 74.1 °F /  23.4 °C 57.9 °F /  14.4 °C 30.27in /  1024.9hPa Calm   1.0mph /  1.6km/h 57% 0.00in /  0mm CLR
12:15 76.6 °F /  24.8 °C 57.1 °F /  13.9 °C 30.26in /  1024.6hPa SSE 1.0mph /  1.6km/h 2.0mph /  3.2km/h 51% 0.00in /  0mm CLR
12:30 77.8 °F /  25.4 °C 56.6 °F /  13.7 °C 30.26in /  1024.6hPa Calm   2.0mph /  3.2km/h 48% 0.00in /  0mm CLR
12:45 79.0 °F /  26.1 °C 55.8 °F /  13.2 °C 30.26in /  1024.6hPa East 1.0mph /  1.6km/h 3.0mph /  4.8km/h 45% 0.00in /  0mm CLR
13:00 80.2 °F /  26.8 °C 58.1 °F /  14.5 °C 30.25in /  1024.3hPa Calm   3.0mph /  4.8km/h 47% 0.00in /  0mm CLR
13:15 80.6 °F /  27 °C 56.7 °F /  13.7 °C 30.25in /  1024.3hPa Calm   5.0mph /  8km/h 44% 0.00in /  0mm CLR
13:30 81.5 °F /  27.5 °C 55.6 °F /  13.1 °C 30.24in /  1023.9hPa Calm   3.0mph /  4.8km/h 41% 0.00in /  0mm CLR
13:45 81.6 °F /  27.6 °C 54.9 °F /  12.7 °C 30.24in /  1023.9hPa Calm   3.0mph /  4.8km/h 40% 0.00in /  0mm CLR
14:00 81.5 °F /  27.5 °C 51.2 °F /  10.7 °C 30.24in /  1023.9hPa Calm   5.0mph /  8km/h 35% 0.00in /  0mm CLR
14:15 81.2 °F /  27.3 °C 51.7 °F /  10.9 °C 30.24in /  1023.9hPa East 1.0mph /  1.6km/h 3.0mph /  4.8km/h 36% 0.00in /  0mm CLR
14:30 81.4 °F /  27.4 °C 52.6 °F /  11.4 °C 30.23in /  1023.6hPa Calm   5.0mph /  8km/h 37% 0.00in /  0mm CLR
14:45 80.3 °F /  26.8 °C 52.3 °F /  11.3 °C 30.23in /  1023.6hPa East 1.0mph /  1.6km/h 5.0mph /  8km/h 38% 0.00in /  0mm CLR
15:00 79.5 °F /  26.4 °C 53.7 °F /  12.1 °C 30.23in /  1023.6hPa Calm   5.0mph /  8km/h 41% 0.00in /  0mm CLR
15:30 79.8 °F /  26.6 °C 53.3 °F /  11.8 °C 30.22in /  1023.2hPa Calm   2.0mph /  3.2km/h 40% 0.00in /  0mm CLR
15:45 79.3 °F /  26.3 °C 52.2 °F /  11.2 °C 30.22in /  1023.2hPa SE 1.0mph /  1.6km/h 3.0mph /  4.8km/h 39% 0.00in /  0mm CLR
16:00 80.3 °F /  26.8 °C 53.1 °F /  11.7 °C 30.21in /  1022.9hPa Calm   3.0mph /  4.8km/h 39% 0.00in /  0mm CLR
16:15 79.4 °F /  26.3 °C 50.1 °F /  10.1 °C 30.21in /  1022.9hPa Calm   3.0mph /  4.8km/h 36% 0.00in /  0mm CLR
16:30 79.8 °F /  26.6 °C 51.2 °F /  10.7 °C 30.21in /  1022.9hPa Calm   2.0mph /  3.2km/h 37% 0.00in /  0mm CLR
17:00 80.4 °F /  26.9 °C 50.2 °F /  10.1 °C 30.20in /  1022.6hPa Calm   3.0mph /  4.8km/h 35% 0.00in /  0mm CLR
17:15 80.1 °F /  26.7 °C 50.7 °F /  10.4 °C 30.20in /  1022.6hPa Calm   2.0mph /  3.2km/h 36% 0.00in /  0mm CLR
17:30 78.7 °F /  25.9 °C 52.3 °F /  11.3 °C 30.21in /  1022.9hPa Calm   5.0mph /  8km/h 40% 0.00in /  0mm CLR
17:45 76.0 °F /  24.4 °C 53.2 °F /  11.8 °C 30.20in /  1022.6hPa Calm   3.0mph /  4.8km/h 45% 0.00in /  0mm CLR
18:00 74.0 °F /  23.3 °C 55.2 °F /  12.9 °C 30.21in /  1022.9hPa Calm   1.0mph /  1.6km/h 52% 0.00in /  0mm CLR
18:15 72.6 °F /  22.6 °C 55.0 °F /  12.8 °C 30.21in /  1022.9hPa Calm   1.0mph /  1.6km/h 54% 0.00in /  0mm CLR
18:30 72.5 °F /  22.5 °C 55.4 °F /  13 °C 30.21in /  1022.9hPa Calm     55% 0.00in /  0mm CLR
18:45 72.6 °F /  22.6 °C 56.0 °F /  13.3 °C 30.21in /  1022.9hPa Calm     56% 0.00in /  0mm CLR
19:00 72.7 °F /  22.6 °C 54.6 °F /  12.6 °C 30.21in /  1022.9hPa Calm     53% 0.00in /  0mm CLR
19:15 72.9 °F /  22.7 °C 54.8 °F /  12.7 °C 30.21in /  1022.9hPa Calm     53% 0.00in /  0mm CLR
19:30 72.8 °F /  22.7 °C 54.7 °F /  12.6 °C 30.21in /  1022.9hPa Calm     53% 0.00in /  0mm CLR
19:45 72.3 °F /  22.4 °C 54.2 °F /  12.3 °C 30.22in /  1023.2hPa Calm     53% 0.00in /  0mm CLR
20:00 71.6 °F /  22 °C 53.6 °F /  12 °C 30.22in /  1023.2hPa Calm     53% 0.00in /  0mm CLR
20:15 70.8 °F /  21.6 °C 53.3 °F /  11.8 °C 30.22in /  1023.2hPa Calm     54% 0.00in /  0mm CLR
20:30 70.0 °F /  21.1 °C 53.5 °F /  11.9 °C 30.23in /  1023.6hPa Calm     56% 0.00in /  0mm CLR
20:45 69.2 °F /  20.7 °C 54.3 °F /  12.4 °C 30.23in /  1023.6hPa Calm     59% 0.00in /  0mm CLR
21:00 68.2 °F /  20.1 °C 54.2 °F /  12.3 °C 30.23in /  1023.6hPa Calm     61% 0.00in /  0mm CLR
21:15 67.5 °F /  19.7 °C 54.5 °F /  12.5 °C 30.23in /  1023.6hPa Calm     63% 0.00in /  0mm CLR
21:30 66.7 °F /  19.3 °C 54.2 °F /  12.3 °C 30.24in /  1023.9hPa Calm     64% 0.00in /  0mm CLR
21:45 66.1 °F /  18.9 °C 54.9 °F /  12.7 °C 30.24in /  1023.9hPa Calm     67% 0.00in /  0mm CLR
22:00 65.6 °F /  18.7 °C 54.7 °F /  12.6 °C 30.24in /  1023.9hPa Calm     68% 0.00in /  0mm CLR
22:15 65.0 °F /  18.3 °C 55.0 °F /  12.8 °C 30.25in /  1024.3hPa Calm     70% 0.00in /  0mm CLR
22:30 64.1 °F /  17.8 °C 54.9 °F /  12.7 °C 30.25in /  1024.3hPa Calm     72% 0.00in /  0mm CLR
22:45 63.7 °F /  17.6 °C 54.9 °F /  12.7 °C 30.25in /  1024.3hPa Calm     73% 0.00in /  0mm CLR
23:00 63.2 °F /  17.3 °C 55.1 °F /  12.8 °C 30.25in /  1024.3hPa Calm     75% 0.00in /  0mm CLR
23:15 62.6 °F /  17 °C 54.9 °F /  12.7 °C 30.25in /  1024.3hPa Calm     76% 0.00in /  0mm CLR
23:30 62.4 °F /  16.9 °C 55.1 °F /  12.8 °C 30.25in /  1024.3hPa Calm     77% 0.00in /  0mm CLR
23:45 61.6 °F /  16.4 °C 54.7 °F /  12.6 °C 30.25in /  1024.3hPa Calm     78% 0.00in /  0mm CLR
Piedmont Bend
Compliments of Weather Underground - 2 mb